Time;durP1;ratioP1;P1;durP2;ratioP2;P2;SDS_P1;SDS_P2;PMS_P1;PMS_P2;Temp;Humidity;BMP_temperature;BMP_pressure;BME280_temperature;BME280_humidity;BME280_pressure;Samples;Min_cycle;Max_cycle;Signal;HPM_P1;HPM_P2
2021/07/12 00:02:15;;;;;;;5.13;1.65;;;;;;;22.00;51.82;100632.66;5039241;28;20132;-62
2021/07/12 00:04:42;;;;;;;5.15;1.70;;;;;;;22.17;51.78;100652.38;5040811;28;20128;-61
2021/07/12 00:07:09;;;;;;;4.30;1.60;;;;;;;22.16;52.17;100650.72;5045601;28;20080;-64
2021/07/12 00:09:36;;;;;;;3.75;1.25;;;;;;;22.14;51.96;100658.72;5039388;28;20128;-63
2021/07/12 00:12:03;;;;;;;5.97;1.65;;;;;;;22.05;52.27;100655.19;5048748;28;20136;-62
2021/07/12 00:14:30;;;;;;;4.57;1.88;;;;;;;21.57;52.50;100613.34;5050187;28;20132;-61
2021/07/12 00:16:57;;;;;;;3.95;1.55;;;;;;;21.84;52.48;100655.28;5047519;28;20128;-61
2021/07/12 00:19:24;;;;;;;11.45;1.67;;;;;;;21.95;52.38;100652.84;5048658;28;20073;-60
2021/07/12 00:21:50;;;;;;;7.10;1.90;;;;;;;21.92;52.26;100662.91;5036767;28;20116;-59
2021/07/12 00:24:19;;;;;;;5.55;2.22;;;;;;;21.68;52.57;100648.66;5034956;28;20121;-61
2021/07/12 00:26:47;;;;;;;9.02;3.00;;;;;;;21.57;52.46;100648.28;5045197;28;20088;-67
2021/07/12 00:29:14;;;;;;;15.35;3.88;;;;;;;21.45;52.84;100654.78;5058584;28;20076;-66
2021/07/12 00:31:42;;;;;;;8.27;3.22;;;;;;;21.65;53.02;100658.72;5045921;28;20184;-65
2021/07/12 00:34:08;;;;;;;11.20;3.85;;;;;;;21.55;52.49;100629.94;5032687;28;20073;-69
2021/07/12 00:36:35;;;;;;;14.00;3.42;;;;;;;21.74;52.73;100655.75;5047705;28;20076;-69
2021/07/12 00:39:04;;;;;;;6.82;2.88;;;;;;;21.84;52.43;100648.78;5043712;28;21968;-64
2021/07/12 00:41:31;;;;;;;12.30;2.67;;;;;;;21.76;52.70;100642.84;5044587;28;20126;-61
2021/07/12 00:43:58;;;;;;;11.52;2.95;;;;;;;22.01;52.57;100649.38;5036820;28;20088;-67
2021/07/12 00:46:24;;;;;;;4.95;1.45;;;;;;;22.09;52.38;100643.94;5047390;28;20049;-66
2021/07/12 00:48:51;;;;;;;6.75;1.75;;;;;;;22.07;52.03;100640.63;5042902;28;20073;-66
2021/07/12 00:51:18;;;;;;;7.07;1.75;;;;;;;22.27;51.59;100655.91;5043662;28;20145;-66
2021/07/12 00:53:45;;;;;;;9.23;1.77;;;;;;;21.84;52.14;100641.06;5049434;28;20122;-71
2021/07/12 00:56:13;;;;;;;6.57;1.60;;;;;;;21.84;52.32;100649.59;5045011;28;20045;-72
2021/07/12 00:58:40;;;;;;;8.40;1.73;;;;;;;21.65;52.61;100646.53;5055283;28;20128;-68
2021/07/12 01:01:07;;;;;;;15.40;1.90;;;;;;;21.49;52.83;100649.22;5036674;28;20120;-69
2021/07/12 01:03:34;;;;;;;5.45;1.48;;;;;;;21.53;52.98;100645.31;5048185;28;20052;-70
2021/07/12 01:06:02;;;;;;;8.40;1.58;;;;;;;21.64;52.72;100645.69;5048579;28;20133;-69
2021/07/12 01:08:30;;;;;;;7.78;1.40;;;;;;;21.74;52.86;100650.06;5045609;28;20148;-70
2021/07/12 01:11:18;;;;;;;6.32;1.67;;;;;;;21.77;52.61;100649.38;5034135;28;20161;-70
2021/07/12 01:13:54;;;;;;;9.02;1.95;;;;;;;21.86;52.19;100633.03;5049519;28;20087;-71
2021/07/12 01:16:27;;;;;;;5.05;2.00;;;;;;;22.09;52.35;100649.63;5039204;28;20503;-67
2021/07/12 01:19:18;;;;;;;3.88;1.42;;;;;;;22.13;52.21;100637.16;5044199;28;20125;-68
2021/07/12 01:22:16;;;;;;;5.50;1.92;;;;;;;21.92;52.38;100640.16;5039107;28;20121;-68
2021/07/12 01:25:18;;;;;;;3.72;1.50;;;;;;;22.07;52.42;100640.63;5040782;28;20148;-69
2021/07/12 01:28:20;;;;;;;7.00;1.70;;;;;;;21.99;52.31;100640.38;5042620;28;20077;-69
2021/07/12 01:31:11;;;;;;;8.23;1.60;;;;;;;21.89;52.80;100645.72;5044944;28;20072;-69
2021/07/12 01:33:46;;;;;;;4.25;1.88;;;;;;;21.94;52.65;100646.28;5047599;28;20056;-67
2021/07/12 01:36:57;;;;;;;3.75;1.77;;;;;;;21.95;52.62;100650.00;5050382;28;20045;-66
2021/07/12 01:39:29;;;;;;;5.70;1.40;;;;;;;21.81;52.65;100650.31;5047165;28;20137;-68
2021/07/12 01:42:06;;;;;;;7.82;2.00;;;;;;;21.16;52.88;100606.59;5039142;28;20083;-67
2021/07/12 01:44:55;;;;;;;8.05;1.77;;;;;;;21.08;53.35;100644.47;5044685;28;20162;-67
2021/07/12 01:47:30;;;;;;;7.40;2.80;;;;;;;21.00;53.99;100649.88;5038892;28;20458;-67
2021/07/12 01:50:25;;;;;;;17.08;2.28;;;;;;;20.92;54.03;100644.25;5046735;28;20137;-66
2021/07/12 01:53:05;;;;;;;8.65;2.30;;;;;;;20.84;54.22;100628.97;5046591;28;20124;-66
2021/07/12 01:55:36;;;;;;;4.20;2.15;;;;;;;20.95;54.21;100647.22;5037203;28;20041;-67
2021/07/12 01:58:14;;;;;;;5.47;2.08;;;;;;;20.83;54.44;100647.19;5036807;28;20133;-67
2021/07/12 02:00:45;;;;;;;5.95;1.48;;;;;;;20.87;54.46;100639.66;5047821;28;20128;-68
2021/07/12 02:03:15;;;;;;;3.30;1.50;;;;;;;20.87;54.46;100633.97;5055787;28;20131;-70
2021/07/12 02:05:42;;;;;;;;;;;;;;;20.81;54.83;100649.53;5049947;28;20628;-70
2021/07/12 02:08:13;;;;;;;3.78;1.80;;;;;;;20.74;54.68;100646.44;5039712;28;20004;-70
2021/07/12 02:10:41;;;;;;;9.10;1.92;;;;;;;20.73;54.66;100651.28;5039897;28;20080;-70
2021/07/12 02:13:08;;;;;;;7.93;1.65;;;;;;;20.76;54.64;100661.94;5046674;28;20092;-70
2021/07/12 02:15:36;;;;;;;8.57;2.50;;;;;;;20.80;54.50;100651.56;5040912;28;20147;-70
2021/07/12 02:18:05;;;;;;;6.47;2.00;;;;;;;20.51;54.96;100637.44;5031659;28;20136;-71
2021/07/12 02:20:33;;;;;;;7.50;2.20;;;;;;;20.64;54.79;100647.69;5039832;28;20080;-69
2021/07/12 02:23:01;;;;;;;6.28;1.83;;;;;;;20.70;54.94;100654.00;5042911;28;20496;-70
2021/07/12 02:25:30;;;;;;;4.28;1.95;;;;;;;20.85;54.60;100659.03;5045113;28;20135;-70
2021/07/12 02:27:57;;;;;;;3.40;1.50;;;;;;;20.69;55.13;100655.19;5041975;28;20580;-69
2021/07/12 02:30:27;;;;;;;8.95;2.67;;;;;;;20.49;55.17;100649.13;5035466;28;20124;-72
2021/07/12 02:32:54;;;;;;;;;;;;;;;20.15;55.59;100658.69;5045170;28;20133;-70
2021/07/12 02:35:21;;;;;;;3.67;1.55;;;;;;;20.18;55.78;100668.53;5044423;28;19927;-68
2021/07/12 02:37:50;;;;;;;8.98;1.90;;;;;;;20.12;55.83;100654.53;5041559;28;20072;-70
2021/07/12 02:40:19;;;;;;;6.63;1.83;;;;;;;19.80;56.06;100624.88;5043690;28;20157;-70
2021/07/12 02:42:49;;;;;;;11.63;2.90;;;;;;;19.82;55.94;100650.03;5038726;28;20557;-64
2021/07/12 02:45:17;;;;;;;;;;;;;;;19.74;56.86;100653.75;5037301;28;20167;-62
2021/07/12 02:47:44;;;;;;;5.45;2.08;;;;;;;19.69;56.43;100617.06;5042064;28;20007;-62
2021/07/12 02:50:12;;;;;;;8.73;2.33;;;;;;;19.95;56.35;100651.78;5039840;28;20065;-64
2021/07/12 02:52:43;;;;;;;10.68;4.70;;;;;;;20.14;56.23;100657.03;5045802;28;20127;-66
2021/07/12 02:55:10;;;;;;;16.33;8.00;;;;;;;20.20;56.14;100654.81;5046567;28;20084;-65
2021/07/12 02:57:37;;;;;;;15.30;9.20;;;;;;;20.07;56.20;100657.56;5045502;28;20525;-63
2021/07/12 03:00:07;;;;;;;12.52;5.65;;;;;;;20.25;56.26;100677.31;5032567;28;20128;-62
2021/07/12 03:02:34;;;;;;;10.85;5.25;;;;;;;20.12;56.44;100682.88;5046211;28;20131;-63
2021/07/12 03:05:01;;;;;;;15.13;5.82;;;;;;;20.12;56.38;100685.72;5043869;28;20046;-62
2021/07/12 03:07:34;;;;;;;14.95;6.03;;;;;;;20.06;56.63;100684.25;5052654;28;20083;-61
2021/07/12 03:10:07;;;;;;;14.43;4.93;;;;;;;20.15;56.47;100686.22;5032981;28;20137;-61
2021/07/12 03:12:41;;;;;;;11.43;4.63;;;;;;;20.01;56.36;100677.94;5049735;28;20044;-61
2021/07/12 03:15:13;;;;;;;14.05;4.22;;;;;;;20.05;56.38;100688.25;5035200;28;20548;-61
2021/07/12 03:17:51;;;;;;;8.88;3.67;;;;;;;19.91;56.38;100687.66;5031400;28;20125;-62
2021/07/12 03:20:20;;;;;;;6.13;2.70;;;;;;;19.94;56.66;100681.31;5049733;28;20135;-61
2021/07/12 03:22:50;;;;;;;8.73;2.67;;;;;;;19.92;56.56;100683.66;5046125;28;20068;-62
2021/07/12 03:25:30;;;;;;;10.73;2.97;;;;;;;19.82;56.53;100692.53;5037496;28;20048;-60
2021/07/12 03:27:58;;;;;;;5.68;1.92;;;;;;;19.76;56.82;100696.72;5049011;28;20277;-62
2021/07/12 03:30:28;;;;;;;10.57;2.60;;;;;;;19.72;56.75;100690.91;5037726;28;20103;-61
2021/07/12 03:32:56;;;;;;;7.75;2.67;;;;;;;19.67;57.11;100688.25;5036826;28;20081;-61
2021/07/12 03:35:31;;;;;;;7.88;2.50;;;;;;;19.48;56.86;100674.44;5042314;28;20053;-61
2021/07/12 03:37:58;;;;;;;4.57;2.45;;;;;;;19.53;57.12;100699.78;5032669;28;20080;-61
2021/07/12 03:40:26;;;;;;;6.72;2.72;;;;;;;19.59;57.17;100706.94;5031929;28;20120;-60
2021/07/12 03:42:53;;;;;;;10.75;3.38;;;;;;;19.47;57.30;100671.97;5031785;28;20151;-61
2021/07/12 03:45:19;;;;;;;10.55;3.45;;;;;;;19.75;56.91;100712.88;5038903;28;20095;-62
2021/07/12 03:47:50;;;;;;;4.68;2.65;;;;;;;19.71;57.08;100711.09;5042105;28;20056;-62
2021/07/12 03:50:18;;;;;;;10.10;2.97;;;;;;;19.45;57.16;100677.94;5048368;28;20061;-62
2021/07/12 03:52:47;;;;;;;9.52;2.65;;;;;;;19.48;57.18;100713.28;5034249;28;20140;-63
2021/07/12 03:55:17;;;;;;;6.20;2.78;;;;;;;19.35;57.37;100693.31;5038710;28;20087;-66
2021/07/12 03:57:44;;;;;;;;;;;;;;;19.52;57.35;100709.44;5045144;28;20120;-65
2021/07/12 04:00:14;;;;;;;5.47;2.72;;;;;;;19.58;56.86;100708.06;5041746;28;20008;-65
2021/07/12 04:02:41;;;;;;;5.32;2.30;;;;;;;19.44;57.23;100718.78;5031856;28;20196;-64
2021/07/12 04:05:09;;;;;;;6.43;2.53;;;;;;;19.29;57.58;100713.66;5042488;28;20077;-62
2021/07/12 04:07:37;;;;;;;11.30;3.80;;;;;;;19.29;57.75;100699.50;5043722;28;20069;-62
2021/07/12 04:10:07;;;;;;;10.25;2.35;;;;;;;18.97;57.34;100656.41;5033883;28;20128;-62
2021/07/12 04:12:33;;;;;;;10.60;2.95;;;;;;;19.11;58.00;100712.81;5035105;28;20128;-62
2021/07/12 04:15:00;;;;;;;10.30;3.78;;;;;;;18.93;58.41;100706.34;5036205;28;20136;-63
2021/07/12 04:17:27;;;;;;;9.80;2.60;;;;;;;18.94;58.40;100711.69;5039670;28;20471;-63
2021/07/12 04:19:54;;;;;;;10.90;3.20;;;;;;;18.99;58.67;100713.50;5047419;28;20131;-63
2021/07/12 04:22:21;;;;;;;11.80;2.65;;;;;;;19.04;58.65;100716.19;5036353;28;20046;-63
2021/07/12 04:24:48;;;;;;;7.35;2.50;;;;;;;19.12;58.52;100720.16;5033138;28;20088;-63
2021/07/12 04:27:15;;;;;;;7.30;2.50;;;;;;;19.11;58.51;100722.16;5044138;28;20080;-63
2021/07/12 04:29:42;;;;;;;9.77;2.65;;;;;;;18.95;58.81;100695.53;5043695;28;20124;-63
2021/07/12 04:32:10;;;;;;;6.57;2.15;;;;;;;19.00;58.87;100715.16;5048019;28;20053;-70
2021/07/12 04:34:37;;;;;;;5.60;1.77;;;;;;;19.04;59.00;100716.19;5051296;28;20057;-63
2021/07/12 04:37:05;;;;;;;6.93;2.42;;;;;;;19.29;58.78;100727.81;5039205;28;20132;-69
2021/07/12 04:39:32;;;;;;;20.42;2.97;;;;;;;19.05;58.41;100695.19;5042826;28;20107;-70
2021/07/12 04:42:02;;;;;;;6.35;3.08;;;;;;;19.26;58.66;100723.66;5043718;28;20048;-67
2021/07/12 04:44:29;;;;;;;11.02;3.00;;;;;;;19.44;58.45;100730.09;5039305;28;20053;-68
2021/07/12 04:46:59;;;;;;;8.60;2.42;;;;;;;19.39;58.63;100728.28;5040961;28;20128;-66
2021/07/12 04:49:26;;;;;;;10.60;2.45;;;;;;;19.08;58.52;100717.19;5047876;28;20044;-64
2021/07/12 04:51:53;;;;;;;6.28;1.73;;;;;;;19.02;58.71;100721.34;5045187;28;20048;-64
2021/07/12 04:54:20;;;;;;;5.80;2.28;;;;;;;18.70;58.84;100683.88;5034655;28;20073;-63
2021/07/12 04:56:46;;;;;;;7.30;1.75;;;;;;;18.91;59.20;100728.50;5034004;28;20140;-64
2021/07/12 04:59:15;;;;;;;13.23;2.53;;;;;;;18.87;59.20;100717.03;5033190;28;20493;-65
2021/07/12 05:01:42;;;;;;;13.38;2.13;;;;;;;19.04;59.33;100724.69;5040786;28;20080;-65
2021/07/12 05:04:10;;;;;;;8.98;2.08;;;;;;;19.19;59.04;100731.81;5050016;28;20063;-64
2021/07/12 05:06:37;;;;;;;5.55;2.08;;;;;;;19.18;58.72;100731.00;5042806;28;20124;-63
2021/07/12 05:09:04;;;;;;;9.05;2.17;;;;;;;19.03;58.67;100725.00;5035174;28;20084;-61
2021/07/12 05:11:32;;;;;;;10.32;2.42;;;;;;;18.91;59.14;100745.47;5033995;28;20080;-62
2021/07/12 05:14:00;;;;;;;8.07;2.95;;;;;;;18.81;59.21;100728.84;5032746;28;20092;-64
2021/07/12 05:16:27;;;;;;;6.15;2.22;;;;;;;18.80;59.55;100738.47;5033813;28;20060;-64
2021/07/12 05:18:55;;;;;;;10.45;3.33;;;;;;;18.63;59.47;100717.47;5041196;28;20580;-67
2021/07/12 05:21:22;;;;;;;8.02;2.67;;;;;;;18.65;59.54;100726.44;5033459;28;20128;-59
2021/07/12 05:23:49;;;;;;;11.48;2.60;;;;;;;18.60;59.52;100746.41;5046693;28;20106;-63
2021/07/12 05:26:16;;;;;;;7.53;2.22;;;;;;;18.57;59.97;100743.41;5041682;28;20087;-63
2021/07/12 05:28:43;;;;;;;7.28;2.22;;;;;;;18.57;59.92;100751.91;5039689;28;20124;-62
2021/07/12 05:31:10;;;;;;;8.20;1.98;;;;;;;18.36;60.11;100729.91;5046513;28;20079;-62
2021/07/12 05:33:37;;;;;;;8.23;2.17;;;;;;;18.38;60.25;100747.34;5044623;28;20057;-65
2021/07/12 05:36:04;;;;;;;10.70;2.28;;;;;;;18.37;59.99;100747.69;5033910;28;20088;-64
2021/07/12 05:38:31;;;;;;;11.05;2.65;;;;;;;18.36;60.36;100752.50;5032282;28;20419;-65
2021/07/12 05:40:58;;;;;;;6.90;3.13;;;;;;;18.32;60.13;100754.31;5040422;28;20083;-66
2021/07/12 05:43:25;;;;;;;9.18;2.30;;;;;;;18.28;60.48;100752.47;5042471;28;20186;-60
2021/07/12 05:45:52;;;;;;;9.20;2.70;;;;;;;18.27;60.67;100759.31;5038273;28;20455;-64
2021/07/12 05:48:19;;;;;;;7.88;2.58;;;;;;;18.24;60.67;100761.59;5047990;28;20256;-63
2021/07/12 05:50:45;;;;;;;6.65;2.20;;;;;;;18.27;60.68;100765.78;5051528;28;20072;-65
2021/07/12 05:53:14;;;;;;;13.80;4.18;;;;;;;18.24;60.70;100767.25;5041400;28;20064;-65
2021/07/12 05:55:41;;;;;;;11.88;2.58;;;;;;;18.41;61.08;100774.97;5041356;28;20128;-74
2021/07/12 05:58:08;;;;;;;7.30;3.13;;;;;;;18.46;60.87;100771.16;5046545;28;20092;-64
2021/07/12 06:00:35;;;;;;;9.82;3.15;;;;;;;18.53;61.22;100767.84;5040694;28;20502;-63
2021/07/12 06:03:02;;;;;;;9.65;2.72;;;;;;;17.94;60.80;100680.53;5039516;28;20077;-64
2021/07/12 06:05:29;;;;;;;11.02;2.63;;;;;;;18.65;61.28;100777.34;5052559;28;21729;-64
2021/07/12 06:07:56;;;;;;;6.57;2.25;;;;;;;18.72;61.50;100781.72;5035541;28;20321;-65
2021/07/12 06:10:23;;;;;;;11.07;3.05;;;;;;;18.78;61.18;100780.41;5043026;28;20139;-65
2021/07/12 06:12:50;;;;;;;9.43;3.15;;;;;;;18.79;61.08;100770.75;5044006;28;20079;-66
2021/07/12 06:15:17;;;;;;;9.52;2.53;;;;;;;18.90;61.45;100775.75;5044945;28;20129;-65
2021/07/12 06:17:45;;;;;;;13.45;2.55;;;;;;;18.56;61.36;100727.59;5045020;28;20071;-66
2021/07/12 06:20:17;;;;;;;10.70;4.22;;;;;;;18.93;60.85;100777.09;5045612;28;20478;-65
2021/07/12 06:22:46;;;;;;;10.95;2.58;;;;;;;19.02;60.79;100786.44;5035679;28;20041;-64
2021/07/12 06:25:15;;;;;;;7.18;2.25;;;;;;;19.03;61.09;100779.59;5049799;28;20516;-64
2021/07/12 06:27:42;;;;;;;8.43;2.10;;;;;;;19.07;60.85;100783.44;5036500;28;20583;-64
2021/07/12 06:30:10;;;;;;;7.03;2.53;;;;;;;19.14;60.83;100786.63;5036016;28;20127;-64
2021/07/12 06:32:37;;;;;;;7.10;2.22;;;;;;;19.23;60.64;100791.44;5045875;28;20148;-64
2021/07/12 06:35:05;;;;;;;10.60;2.67;;;;;;;19.19;60.78;100771.44;5041719;28;20045;-64
2021/07/12 06:37:33;;;;;;;12.73;2.50;;;;;;;19.12;60.56;100777.63;5053552;28;20083;-64
2021/07/12 06:40:00;;;;;;;11.60;2.42;;;;;;;19.28;60.54;100799.75;5041422;28;20118;-64
2021/07/12 06:42:27;;;;;;;8.20;2.03;;;;;;;19.36;60.50;100801.75;5032980;28;20131;-63
2021/07/12 06:44:57;;;;;;;10.23;3.33;;;;;;;19.56;60.33;100811.59;5041951;28;20069;-63
2021/07/12 06:47:25;;;;;;;6.25;1.83;;;;;;;19.79;60.14;100798.06;5040942;28;20045;-65
2021/07/12 06:49:52;;;;;;;9.38;2.53;;;;;;;19.74;60.00;100784.06;5040410;28;20124;-64
2021/07/12 06:52:20;;;;;;;9.25;2.22;;;;;;;19.89;59.76;100777.84;5030425;28;20051;-63
2021/07/12 06:54:47;;;;;;;8.10;1.85;;;;;;;20.15;59.44;100811.78;5039341;28;20088;-63
2021/07/12 06:57:15;;;;;;;7.00;2.10;;;;;;;20.26;59.01;100803.75;5034955;28;20046;-63
2021/07/12 06:59:42;;;;;;;5.10;2.42;;;;;;;20.25;58.63;100804.94;5034032;28;20042;-63
2021/07/12 07:02:13;;;;;;;11.60;2.10;;;;;;;20.24;58.75;100803.25;5038349;28;20473;-63
2021/07/12 07:04:41;;;;;;;6.50;3.28;;;;;;;20.25;58.75;100810.59;5043835;28;20126;-65
2021/07/12 07:07:08;;;;;;;6.18;2.45;;;;;;;20.28;58.39;100816.41;5035619;28;20046;-64
2021/07/12 07:09:35;;;;;;;14.90;2.95;;;;;;;20.55;58.63;100825.69;5036058;28;20068;-64
2021/07/12 07:12:02;;;;;;;6.70;2.63;;;;;;;21.03;57.79;100815.88;5044144;28;20492;-64
2021/07/12 07:14:30;;;;;;;7.00;2.47;;;;;;;21.34;57.18;100829.69;5034959;28;20048;-64
2021/07/12 07:16:56;;;;;;;7.57;2.95;;;;;;;21.85;56.28;100824.69;5038346;28;20042;-64
2021/07/12 07:19:23;;;;;;;9.98;2.38;;;;;;;22.41;55.77;100822.22;5030638;28;20107;-63
2021/07/12 07:21:54;;;;;;;5.55;1.90;;;;;;;22.91;54.15;100831.59;5030917;28;20073;-64
2021/07/12 07:24:21;;;;;;;6.88;1.77;;;;;;;23.07;53.90;100826.84;5031895;28;20442;-64
2021/07/12 07:26:48;;;;;;;6.63;2.05;;;;;;;23.05;53.33;100817.03;5049993;28;20049;-64
2021/07/12 07:29:15;;;;;;;4.85;1.48;;;;;;;22.92;52.90;100797.09;5040132;28;20077;-64
2021/07/12 07:31:43;;;;;;;7.45;2.13;;;;;;;23.33;52.21;100820.75;5049470;28;20093;-64
2021/07/12 07:34:25;;;;;;;8.52;1.95;;;;;;;23.86;51.44;100830.06;5031484;28;20057;-64
2021/07/12 07:36:52;;;;;;;5.90;1.45;;;;;;;24.42;50.12;100823.44;5041758;28;20456;-64
2021/07/12 07:39:19;;;;;;;3.75;2.05;;;;;;;24.74;49.62;100841.38;5042061;28;20056;-64
2021/07/12 07:41:45;;;;;;;7.50;1.75;;;;;;;24.94;48.63;100841.44;5052414;28;20487;-64
2021/07/12 07:44:14;;;;;;;5.10;1.67;;;;;;;25.30;48.26;100828.88;5040808;28;20132;-63
2021/07/12 07:46:41;;;;;;;7.45;2.03;;;;;;;25.87;47.21;100817.81;5034895;28;20467;-64
2021/07/12 07:49:08;;;;;;;9.85;1.88;;;;;;;26.22;46.24;100829.97;5042932;28;20046;-63
2021/07/12 07:51:37;;;;;;;6.10;2.33;;;;;;;26.29;46.37;100837.00;5035604;28;20112;-64
2021/07/12 07:54:07;;;;;;;4.25;1.70;;;;;;;26.37;46.21;100827.34;5039993;28;20140;-63
2021/07/12 07:56:34;;;;;;;5.60;1.90;;;;;;;26.37;45.97;100819.56;5035029;28;20197;-64
2021/07/12 07:59:01;;;;;;;4.93;1.67;;;;;;;26.56;45.23;100852.25;5039743;28;20052;-64
2021/07/12 08:01:28;;;;;;;6.80;1.73;;;;;;;26.46;45.51;100847.94;5035983;28;20128;-64
2021/07/12 08:03:55;;;;;;;7.85;2.28;;;;;;;26.47;44.85;100861.09;5041223;28;20397;-62
2021/07/12 08:06:22;;;;;;;10.68;1.63;;;;;;;26.36;44.72;100849.44;5047992;28;20129;-63
2021/07/12 08:08:49;;;;;;;7.40;1.85;;;;;;;26.24;44.53;100849.59;5041929;28;20095;-63
2021/07/12 08:11:16;;;;;;;4.65;1.80;;;;;;;25.93;44.77;100834.28;5040845;28;20664;-65
2021/07/12 08:13:44;;;;;;;3.88;1.50;;;;;;;26.00;44.28;100853.63;5031789;28;20520;-65
2021/07/12 08:16:12;;;;;;;12.98;2.00;;;;;;;25.74;44.64;100826.53;5040207;28;20438;-64
2021/07/12 08:18:39;;;;;;;3.50;1.40;;;;;;;26.53;43.86;100856.72;5041057;28;20064;-62
2021/07/12 08:21:08;;;;;;;8.07;2.60;;;;;;;26.79;43.23;100837.91;5042197;28;20211;-63
2021/07/12 08:23:34;;;;;;;4.03;1.65;;;;;;;27.02;42.86;100827.22;5042204;28;20073;-63
2021/07/12 08:26:01;;;;;;;4.32;1.25;;;;;;;27.45;42.24;100856.53;5039049;28;20124;-63
2021/07/12 08:28:29;;;;;;;5.57;1.67;;;;;;;27.14;41.74;100838.47;5044863;28;20080;-65
2021/07/12 08:30:56;;;;;;;4.75;2.38;;;;;;;26.75;42.54;100845.63;5039722;28;20554;-64
2021/07/12 08:33:23;;;;;;;8.60;1.92;;;;;;;26.50;42.71;100850.94;5042888;28;20077;-63
2021/07/12 08:35:50;;;;;;;8.00;2.08;;;;;;;26.24;42.72;100859.00;5040419;28;20049;-64
2021/07/12 08:38:16;;;;;;;13.30;2.47;;;;;;;25.87;43.22;100858.69;5036008;28;20080;-63
2021/07/12 08:40:43;;;;;;;8.25;1.77;;;;;;;25.75;43.45;100862.50;5036967;28;20128;-63
2021/07/12 08:43:12;;;;;;;5.40;1.83;;;;;;;25.48;43.45;100863.56;5039651;28;20052;-63
2021/07/12 08:45:38;;;;;;;8.27;1.75;;;;;;;25.45;43.68;100873.72;5040895;28;20612;-63
2021/07/12 08:48:05;;;;;;;8.05;1.90;;;;;;;25.33;44.17;100873.00;5034178;28;20132;-63
2021/07/12 08:50:33;;;;;;;8.73;1.73;;;;;;;25.21;44.16;100874.78;5035729;28;20132;-62
2021/07/12 08:53:00;;;;;;;4.18;1.55;;;;;;;25.25;44.49;100875.69;5034291;28;20400;-63
2021/07/12 08:55:27;;;;;;;7.80;1.77;;;;;;;25.17;44.71;100871.03;5041523;28;20194;-63
2021/07/12 08:58:07;;;;;;;5.45;1.55;;;;;;;25.02;44.48;100857.56;5045205;28;20120;-63
2021/07/12 09:00:35;;;;;;;6.03;2.30;;;;;;;25.03;44.59;100862.09;5038022;28;20479;-63
2021/07/12 09:03:18;;;;;;;6.43;2.28;;;;;;;25.60;44.24;100869.13;5036723;28;20207;-62
2021/07/12 09:05:52;;;;;;;6.85;1.60;;;;;;;25.73;43.68;100853.47;5035545;28;20045;-63
2021/07/12 09:08:41;;;;;;;5.50;1.65;;;;;;;25.64;44.03;100870.06;5039417;28;20124;-62
2021/07/12 09:11:17;;;;;;;6.60;2.42;;;;;;;25.37;43.96;100862.47;5044505;28;20136;-62
2021/07/12 09:13:50;;;;;;;4.43;1.50;;;;;;;25.33;44.17;100867.28;5040017;28;20485;-62
2021/07/12 09:16:32;;;;;;;5.05;1.52;;;;;;;25.22;44.28;100879.28;5070285;28;20107;-62
2021/07/12 09:19:16;;;;;;;5.90;2.10;;;;;;;25.09;44.22;100877.72;5036191;28;20045;-62
2021/07/12 09:21:53;;;;;;;6.28;2.08;;;;;;;25.45;44.40;100867.16;5041350;28;20137;-63
2021/07/12 09:24:52;;;;;;;6.95;1.63;;;;;;;25.97;43.95;100883.00;5045155;28;20124;-62
2021/07/12 09:27:24;;;;;;;6.00;1.80;;;;;;;26.62;42.86;100865.84;5036541;28;20168;-63
2021/07/12 09:29:53;;;;;;;3.00;1.60;;;;;;;27.04;41.79;100866.94;5042497;28;20053;-63
2021/07/12 09:32:23;;;;;;;5.22;1.83;;;;;;;27.04;41.90;100875.56;5044001;28;20059;-62
2021/07/12 09:34:57;;;;;;;8.55;2.20;;;;;;;27.01;41.71;100862.00;5039955;28;20497;-62
2021/07/12 09:37:24;;;;;;;5.45;1.50;;;;;;;26.62;41.80;100874.47;5036187;28;20087;-63
2021/07/12 09:39:53;;;;;;;4.13;2.00;;;;;;;26.26;41.75;100863.53;5039199;28;20662;-63
2021/07/12 09:42:25;;;;;;;3.75;1.35;;;;;;;26.33;42.29;100878.81;5047470;28;20084;-63
2021/07/12 09:44:55;;;;;;;5.32;1.60;;;;;;;26.29;42.41;100889.38;5031548;28;20076;-62
2021/07/12 09:47:25;;;;;;;3.25;1.10;;;;;;;26.41;41.84;100883.47;5049159;28;20128;-63
2021/07/12 09:50:09;;;;;;;3.13;1.55;;;;;;;26.48;41.27;100854.16;5038187;28;20120;-62
2021/07/12 09:52:43;;;;;;;5.72;1.35;;;;;;;26.74;41.61;100895.53;5039810;28;20077;-62
2021/07/12 09:55:45;;;;;;;5.10;1.60;;;;;;;26.53;41.48;100882.50;5036515;28;20067;-62
2021/07/12 09:58:16;;;;;;;5.60;1.52;;;;;;;26.68;41.83;100897.88;5046249;28;20065;-63
2021/07/12 10:00:48;;;;;;;6.47;1.83;;;;;;;26.85;41.60;100885.09;5035552;28;20140;-63
2021/07/12 10:03:21;;;;;;;5.70;2.22;;;;;;;26.64;41.70;100892.09;5039659;28;20052;-63
2021/07/12 10:05:49;;;;;;;4.88;1.17;;;;;;;26.46;41.58;100885.16;5035632;28;20092;-64
2021/07/12 10:08:16;;;;;;;4.45;1.35;;;;;;;26.11;41.96;100900.47;5041698;28;20131;-62
2021/07/12 10:10:44;;;;;;;4.57;1.15;;;;;;;26.07;42.12;100911.00;5042943;28;20045;-63
2021/07/12 10:13:11;;;;;;;5.53;1.83;;;;;;;26.00;42.31;100916.59;5047277;28;20136;-63
2021/07/12 10:15:39;;;;;;;3.85;1.85;;;;;;;25.96;42.49;100918.56;5038576;28;20048;-65
2021/07/12 10:18:07;;;;;;;5.95;1.40;;;;;;;25.89;42.42;100912.69;5045656;28;20129;-64
2021/07/12 10:20:36;;;;;;;3.03;1.08;;;;;;;25.71;43.14;100927.41;5034361;28;20052;-64
2021/07/12 10:23:05;;;;;;;5.05;1.55;;;;;;;25.55;43.26;100920.09;5043899;28;20132;-65
2021/07/12 10:25:34;;;;;;;11.05;1.80;;;;;;;25.55;42.77;100929.47;5038651;28;20088;-65
2021/07/12 10:28:06;;;;;;;4.75;1.38;;;;;;;25.51;42.93;100934.31;5040723;28;20045;-63
2021/07/12 10:30:47;;;;;;;3.20;1.00;;;;;;;25.47;42.75;100924.78;5045414;28;20103;-63
2021/07/12 10:33:17;;;;;;;3.90;1.48;;;;;;;25.44;42.21;100925.56;5036699;28;20036;-62
2021/07/12 10:35:53;;;;;;;2.28;1.00;;;;;;;25.46;42.05;100935.41;5036742;28;20056;-63
2021/07/12 10:38:26;;;;;;;1.90;0.98;;;;;;;25.51;42.46;100935.13;5033321;28;20497;-63
2021/07/12 10:40:58;;;;;;;2.88;1.08;;;;;;;25.57;42.57;100941.34;5045504;28;20057;-63
2021/07/12 10:43:47;;;;;;;1.80;1.15;;;;;;;25.74;42.17;100940.97;5036088;28;20050;-63
2021/07/12 10:46:32;;;;;;;1.80;0.93;;;;;;;25.97;42.24;100943.09;5044124;28;20080;-63
2021/07/12 10:49:05;;;;;;;5.85;1.50;;;;;;;26.11;42.01;100940.53;5037544;28;20397;-63
2021/07/12 10:51:40;;;;;;;3.92;0.90;;;;;;;26.17;41.55;100923.88;5037867;28;20572;-63
2021/07/12 10:54:12;;;;;;;2.20;1.00;;;;;;;26.27;41.26;100939.63;5038817;28;20045;-63
2021/07/12 10:56:57;;;;;;;3.92;1.95;;;;;;;25.96;40.99;100948.00;5035883;28;20045;-63
2021/07/12 10:59:31;;;;;;;5.97;2.17;;;;;;;26.12;40.75;100949.94;5037355;28;20140;-63
2021/07/12 11:02:03;;;;;;;5.57;1.23;;;;;;;26.48;40.57;100947.84;5036026;28;20080;-63
2021/07/12 11:04:36;;;;;;;1.95;1.40;;;;;;;26.69;39.85;100946.19;5038192;28;20132;-63
2021/07/12 11:07:09;;;;;;;2.03;1.40;;;;;;;27.02;39.74;100943.91;5037380;28;20135;-64
2021/07/12 11:09:54;;;;;;;2.05;1.23;;;;;;;26.99;39.19;100916.84;5038840;28;20128;-63
2021/07/12 11:12:26;;;;;;;2.85;1.70;;;;;;;27.45;39.01;100942.56;5037205;28;20124;-63
2021/07/12 11:15:16;;;;;;;3.03;1.02;;;;;;;27.59;38.99;100948.53;5038725;28;20044;-63
2021/07/12 11:17:56;;;;;;;6.22;1.00;;;;;;;27.85;38.49;100938.25;5034931;28;20151;-63
2021/07/12 11:20:47;;;;;;;2.97;0.93;;;;;;;27.97;37.74;100940.91;5031663;28;20512;-63
2021/07/12 11:23:43;;;;;;;3.47;1.50;;;;;;;28.24;37.96;100943.66;5029320;28;20120;-64
2021/07/12 11:26:19;;;;;;;2.47;1.00;;;;;;;28.34;37.50;100934.34;5043784;28;20144;-63
2021/07/12 11:28:48;;;;;;;7.50;2.10;;;;;;;28.48;36.71;100931.69;5050289;28;20095;-63
2021/07/12 11:31:42;;;;;;;4.40;2.10;;;;;;;28.68;36.40;100937.19;5038455;28;20128;-63
2021/07/12 11:34:14;;;;;;;2.72;1.20;;;;;;;28.90;35.90;100936.19;5034580;28;20096;-62
2021/07/12 11:36:48;;;;;;;1.55;0.90;;;;;;;28.91;35.44;100934.97;5035659;28;20072;-62
2021/07/12 11:39:41;;;;;;;2.75;1.63;;;;;;;28.84;35.52;100928.34;5038384;28;20049;-65
2021/07/12 11:42:13;;;;;;;4.47;0.80;;;;;;;29.05;35.57;100949.50;5056537;28;20463;-64